sensor_id;sensor_type;location;lat;lon;timestamp;P1;durP1;ratioP1;P2;durP2;ratioP2
41923;SDS011;27613;48.116;11.656;2024-02-21T00:01:35;2.08;;;1.13;;
41923;SDS011;27613;48.116;11.656;2024-02-21T00:04:00;2.45;;;1.25;;
41923;SDS011;27613;48.116;11.656;2024-02-21T00:06:26;6.13;;;1.45;;
41923;SDS011;27613;48.116;11.656;2024-02-21T00:08:51;2.08;;;1.05;;
41923;SDS011;27613;48.116;11.656;2024-02-21T00:11:17;4.40;;;1.83;;
41923;SDS011;27613;48.116;11.656;2024-02-21T00:13:42;3.50;;;1.30;;
41923;SDS011;27613;48.116;11.656;2024-02-21T00:16:08;2.88;;;1.77;;
41923;SDS011;27613;48.116;11.656;2024-02-21T00:18:34;3.28;;;1.17;;
41923;SDS011;27613;48.116;11.656;2024-02-21T00:20:59;3.15;;;1.40;;
41923;SDS011;27613;48.116;11.656;2024-02-21T00:23:26;3.33;;;1.40;;
41923;SDS011;27613;48.116;11.656;2024-02-21T00:25:53;3.05;;;1.77;;
41923;SDS011;27613;48.116;11.656;2024-02-21T00:28:18;2.75;;;1.15;;
41923;SDS011;27613;48.116;11.656;2024-02-21T00:30:44;3.97;;;1.33;;
41923;SDS011;27613;48.116;11.656;2024-02-21T00:33:12;2.22;;;1.30;;
41923;SDS011;27613;48.116;11.656;2024-02-21T00:35:38;2.95;;;1.13;;
41923;SDS011;27613;48.116;11.656;2024-02-21T00:38:03;2.65;;;1.30;;
41923;SDS011;27613;48.116;11.656;2024-02-21T00:40:29;1.63;;;1.20;;
41923;SDS011;27613;48.116;11.656;2024-02-21T00:42:55;2.95;;;1.33;;
41923;SDS011;27613;48.116;11.656;2024-02-21T00:45:20;4.05;;;1.65;;
41923;SDS011;27613;48.116;11.656;2024-02-21T00:47:46;3.72;;;1.38;;
41923;SDS011;27613;48.116;11.656;2024-02-21T00:50:11;1.88;;;1.10;;
41923;SDS011;27613;48.116;11.656;2024-02-21T00:52:37;1.65;;;1.00;;
41923;SDS011;27613;48.116;11.656;2024-02-21T00:55:03;4.10;;;1.48;;
41923;SDS011;27613;48.116;11.656;2024-02-21T00:57:29;2.72;;;1.38;;
41923;SDS011;27613;48.116;11.656;2024-02-21T00:59:55;3.70;;;1.33;;
41923;SDS011;27613;48.116;11.656;2024-02-21T01:02:20;5.43;;;1.65;;
41923;SDS011;27613;48.116;11.656;2024-02-21T01:04:46;2.80;;;1.40;;
41923;SDS011;27613;48.116;11.656;2024-02-21T01:07:11;3.65;;;1.48;;
41923;SDS011;27613;48.116;11.656;2024-02-21T01:09:37;4.25;;;1.23;;
41923;SDS011;27613;48.116;11.656;2024-02-21T01:12:02;4.53;;;1.23;;
41923;SDS011;27613;48.116;11.656;2024-02-21T01:14:28;1.58;;;1.17;;
41923;SDS011;27613;48.116;11.656;2024-02-21T01:16:53;2.80;;;1.30;;
41923;SDS011;27613;48.116;11.656;2024-02-21T01:19:19;2.70;;;1.00;;
41923;SDS011;27613;48.116;11.656;2024-02-21T01:21:45;2.10;;;1.17;;
41923;SDS011;27613;48.116;11.656;2024-02-21T01:24:10;2.20;;;1.08;;
41923;SDS011;27613;48.116;11.656;2024-02-21T01:26:35;2.53;;;1.30;;
41923;SDS011;27613;48.116;11.656;2024-02-21T01:29:01;3.03;;;1.30;;
41923;SDS011;27613;48.116;11.656;2024-02-21T01:31:26;1.95;;;1.30;;
41923;SDS011;27613;48.116;11.656;2024-02-21T01:33:52;2.38;;;1.10;;
41923;SDS011;27613;48.116;11.656;2024-02-21T01:36:17;2.50;;;1.20;;
41923;SDS011;27613;48.116;11.656;2024-02-21T01:38:43;1.80;;;1.23;;
41923;SDS011;27613;48.116;11.656;2024-02-21T01:41:09;9.07;;;1.45;;
41923;SDS011;27613;48.116;11.656;2024-02-21T01:43:34;2.58;;;1.13;;
41923;SDS011;27613;48.116;11.656;2024-02-21T01:46:00;1.35;;;0.80;;
41923;SDS011;27613;48.116;11.656;2024-02-21T01:48:25;1.52;;;1.00;;
41923;SDS011;27613;48.116;11.656;2024-02-21T01:50:54;1.40;;;0.90;;
41923;SDS011;27613;48.116;11.656;2024-02-21T01:53:21;2.13;;;1.15;;
41923;SDS011;27613;48.116;11.656;2024-02-21T01:55:48;3.03;;;1.38;;
41923;SDS011;27613;48.116;11.656;2024-02-21T01:58:17;1.15;;;0.88;;
41923;SDS011;27613;48.116;11.656;2024-02-21T02:00:45;1.80;;;0.98;;
41923;SDS011;27613;48.116;11.656;2024-02-21T02:03:11;1.60;;;1.15;;
41923;SDS011;27613;48.116;11.656;2024-02-21T02:05:47;1.90;;;1.02;;
41923;SDS011;27613;48.116;11.656;2024-02-21T02:08:14;3.20;;;1.33;;
41923;SDS011;27613;48.116;11.656;2024-02-21T02:10:40;6.43;;;1.27;;
41923;SDS011;27613;48.116;11.656;2024-02-21T02:13:06;1.60;;;1.17;;
41923;SDS011;27613;48.116;11.656;2024-02-21T02:15:39;2.42;;;1.08;;
41923;SDS011;27613;48.116;11.656;2024-02-21T02:18:04;1.55;;;1.10;;
41923;SDS011;27613;48.116;11.656;2024-02-21T02:20:30;2.35;;;1.30;;
41923;SDS011;27613;48.116;11.656;2024-02-21T02:22:56;1.58;;;1.00;;
41923;SDS011;27613;48.116;11.656;2024-02-21T02:25:24;1.98;;;1.23;;
41923;SDS011;27613;48.116;11.656;2024-02-21T02:27:50;2.33;;;1.17;;
41923;SDS011;27613;48.116;11.656;2024-02-21T02:30:15;1.98;;;1.00;;
41923;SDS011;27613;48.116;11.656;2024-02-21T02:32:44;1.77;;;1.00;;
41923;SDS011;27613;48.116;11.656;2024-02-21T02:35:11;2.58;;;0.90;;
41923;SDS011;27613;48.116;11.656;2024-02-21T02:37:37;1.55;;;1.00;;
41923;SDS011;27613;48.116;11.656;2024-02-21T02:40:04;1.08;;;0.98;;
41923;SDS011;27613;48.116;11.656;2024-02-21T02:42:31;2.15;;;1.00;;
41923;SDS011;27613;48.116;11.656;2024-02-21T02:44:56;2.42;;;1.13;;
41923;SDS011;27613;48.116;11.656;2024-02-21T02:47:22;1.20;;;0.70;;
41923;SDS011;27613;48.116;11.656;2024-02-21T02:49:48;2.97;;;1.13;;
41923;SDS011;27613;48.116;11.656;2024-02-21T02:52:15;1.75;;;1.02;;
41923;SDS011;27613;48.116;11.656;2024-02-21T02:54:41;1.60;;;0.95;;
41923;SDS011;27613;48.116;11.656;2024-02-21T02:57:07;2.22;;;1.30;;
41923;SDS011;27613;48.116;11.656;2024-02-21T02:59:33;1.85;;;1.08;;
41923;SDS011;27613;48.116;11.656;2024-02-21T03:01:58;1.45;;;0.90;;
41923;SDS011;27613;48.116;11.656;2024-02-21T03:04:24;2.10;;;1.25;;
41923;SDS011;27613;48.116;11.656;2024-02-21T03:06:49;1.42;;;0.70;;
41923;SDS011;27613;48.116;11.656;2024-02-21T03:09:15;1.75;;;1.10;;
41923;SDS011;27613;48.116;11.656;2024-02-21T03:11:42;1.15;;;0.82;;
41923;SDS011;27613;48.116;11.656;2024-02-21T03:14:09;2.28;;;1.15;;
41923;SDS011;27613;48.116;11.656;2024-02-21T03:16:35;3.08;;;1.20;;
41923;SDS011;27613;48.116;11.656;2024-02-21T03:19:01;1.92;;;1.00;;
41923;SDS011;27613;48.116;11.656;2024-02-21T03:21:26;2.95;;;1.17;;
41923;SDS011;27613;48.116;11.656;2024-02-21T03:23:52;6.13;;;0.95;;
41923;SDS011;27613;48.116;11.656;2024-02-21T03:26:17;1.35;;;0.85;;
41923;SDS011;27613;48.116;11.656;2024-02-21T03:28:43;1.83;;;1.08;;
41923;SDS011;27613;48.116;11.656;2024-02-21T03:31:11;2.22;;;1.02;;
41923;SDS011;27613;48.116;11.656;2024-02-21T03:33:38;1.02;;;0.88;;
41923;SDS011;27613;48.116;11.656;2024-02-21T03:36:12;1.17;;;0.77;;
41923;SDS011;27613;48.116;11.656;2024-02-21T03:38:39;1.50;;;0.85;;
41923;SDS011;27613;48.116;11.656;2024-02-21T03:41:05;0.60;;;0.60;;
41923;SDS011;27613;48.116;11.656;2024-02-21T03:43:30;1.40;;;0.80;;
41923;SDS011;27613;48.116;11.656;2024-02-21T03:45:56;0.75;;;0.73;;
41923;SDS011;27613;48.116;11.656;2024-02-21T03:48:21;2.30;;;0.98;;
41923;SDS011;27613;48.116;11.656;2024-02-21T03:50:47;0.75;;;0.70;;
41923;SDS011;27613;48.116;11.656;2024-02-21T03:53:12;0.95;;;0.80;;
41923;SDS011;27613;48.116;11.656;2024-02-21T03:55:38;1.42;;;0.85;;
41923;SDS011;27613;48.116;11.656;2024-02-21T03:58:04;2.00;;;0.85;;
41923;SDS011;27613;48.116;11.656;2024-02-21T04:00:29;2.53;;;0.95;;
41923;SDS011;27613;48.116;11.656;2024-02-21T04:02:54;1.25;;;0.80;;
41923;SDS011;27613;48.116;11.656;2024-02-21T04:05:20;3.42;;;1.10;;
41923;SDS011;27613;48.116;11.656;2024-02-21T04:07:46;2.47;;;1.10;;
41923;SDS011;27613;48.116;11.656;2024-02-21T04:10:12;2.45;;;1.20;;
41923;SDS011;27613;48.116;11.656;2024-02-21T04:12:37;1.60;;;0.95;;
41923;SDS011;27613;48.116;11.656;2024-02-21T04:15:03;1.63;;;0.85;;
41923;SDS011;27613;48.116;11.656;2024-02-21T04:17:29;1.02;;;0.82;;
41923;SDS011;27613;48.116;11.656;2024-02-21T04:20:01;1.10;;;1.00;;
41923;SDS011;27613;48.116;11.656;2024-02-21T04:22:30;1.23;;;1.00;;
41923;SDS011;27613;48.116;11.656;2024-02-21T04:24:57;3.20;;;1.20;;
41923;SDS011;27613;48.116;11.656;2024-02-21T04:27:24;1.65;;;1.00;;
41923;SDS011;27613;48.116;11.656;2024-02-21T04:29:50;2.28;;;0.85;;
41923;SDS011;27613;48.116;11.656;2024-02-21T04:32:15;2.78;;;0.90;;
41923;SDS011;27613;48.116;11.656;2024-02-21T04:34:41;1.08;;;0.75;;
41923;SDS011;27613;48.116;11.656;2024-02-21T04:37:06;2.03;;;1.02;;
41923;SDS011;27613;48.116;11.656;2024-02-21T04:39:32;0.93;;;0.70;;
41923;SDS011;27613;48.116;11.656;2024-02-21T04:41:57;5.38;;;1.10;;
41923;SDS011;27613;48.116;11.656;2024-02-21T04:44:23;1.25;;;1.00;;
41923;SDS011;27613;48.116;11.656;2024-02-21T04:46:48;1.00;;;0.82;;
41923;SDS011;27613;48.116;11.656;2024-02-21T04:49:14;1.33;;;0.80;;
41923;SDS011;27613;48.116;11.656;2024-02-21T04:51:40;1.67;;;1.00;;
41923;SDS011;27613;48.116;11.656;2024-02-21T04:54:06;1.70;;;0.80;;
41923;SDS011;27613;48.116;11.656;2024-02-21T04:56:31;3.33;;;1.13;;
41923;SDS011;27613;48.116;11.656;2024-02-21T04:58:57;1.52;;;1.20;;
41923;SDS011;27613;48.116;11.656;2024-02-21T05:01:22;1.73;;;0.85;;
41923;SDS011;27613;48.116;11.656;2024-02-21T05:03:48;1.05;;;0.77;;
41923;SDS011;27613;48.116;11.656;2024-02-21T05:06:13;1.45;;;1.10;;
41923;SDS011;27613;48.116;11.656;2024-02-21T05:08:39;1.50;;;0.90;;
41923;SDS011;27613;48.116;11.656;2024-02-21T05:11:11;0.60;;;0.60;;
41923;SDS011;27613;48.116;11.656;2024-02-21T05:13:36;1.95;;;1.02;;
41923;SDS011;27613;48.116;11.656;2024-02-21T05:16:02;2.03;;;0.90;;
41923;SDS011;27613;48.116;11.656;2024-02-21T05:18:28;0.75;;;0.70;;
41923;SDS011;27613;48.116;11.656;2024-02-21T05:20:53;2.40;;;1.23;;
41923;SDS011;27613;48.116;11.656;2024-02-21T05:23:19;1.27;;;0.82;;
41923;SDS011;27613;48.116;11.656;2024-02-21T05:25:44;1.42;;;0.85;;
41923;SDS011;27613;48.116;11.656;2024-02-21T05:28:10;1.58;;;1.10;;
41923;SDS011;27613;48.116;11.656;2024-02-21T05:30:35;0.82;;;0.80;;
41923;SDS011;27613;48.116;11.656;2024-02-21T05:33:05;1.00;;;0.70;;
41923;SDS011;27613;48.116;11.656;2024-02-21T05:35:31;3.42;;;1.08;;
41923;SDS011;27613;48.116;11.656;2024-02-21T05:37:56;5.07;;;0.90;;
41923;SDS011;27613;48.116;11.656;2024-02-21T05:40:22;1.35;;;0.90;;
41923;SDS011;27613;48.116;11.656;2024-02-21T05:42:48;0.82;;;0.77;;
41923;SDS011;27613;48.116;11.656;2024-02-21T05:45:13;1.42;;;1.00;;
41923;SDS011;27613;48.116;11.656;2024-02-21T05:47:40;1.90;;;0.93;;
41923;SDS011;27613;48.116;11.656;2024-02-21T05:50:06;1.77;;;0.98;;
41923;SDS011;27613;48.116;11.656;2024-02-21T05:52:32;2.35;;;1.30;;
41923;SDS011;27613;48.116;11.656;2024-02-21T05:54:57;3.30;;;1.00;;
41923;SDS011;27613;48.116;11.656;2024-02-21T05:57:23;1.98;;;1.00;;
41923;SDS011;27613;48.116;11.656;2024-02-21T05:59:48;1.75;;;0.80;;
41923;SDS011;27613;48.116;11.656;2024-02-21T06:02:14;1.85;;;0.90;;
41923;SDS011;27613;48.116;11.656;2024-02-21T06:04:39;1.17;;;0.82;;
41923;SDS011;27613;48.116;11.656;2024-02-21T06:07:05;1.45;;;0.90;;
41923;SDS011;27613;48.116;11.656;2024-02-21T06:09:30;1.25;;;0.93;;
41923;SDS011;27613;48.116;11.656;2024-02-21T06:11:57;1.60;;;0.93;;
41923;SDS011;27613;48.116;11.656;2024-02-21T06:14:22;0.70;;;0.70;;
41923;SDS011;27613;48.116;11.656;2024-02-21T06:16:48;1.45;;;1.00;;
41923;SDS011;27613;48.116;11.656;2024-02-21T06:19:13;1.83;;;1.00;;
41923;SDS011;27613;48.116;11.656;2024-02-21T06:21:39;0.90;;;0.80;;
41923;SDS011;27613;48.116;11.656;2024-02-21T06:24:04;1.55;;;1.00;;
41923;SDS011;27613;48.116;11.656;2024-02-21T06:26:30;1.20;;;0.80;;
41923;SDS011;27613;48.116;11.656;2024-02-21T06:28:55;1.15;;;0.80;;
41923;SDS011;27613;48.116;11.656;2024-02-21T06:31:22;1.58;;;1.00;;
41923;SDS011;27613;48.116;11.656;2024-02-21T06:33:47;1.48;;;1.05;;
41923;SDS011;27613;48.116;11.656;2024-02-21T06:36:13;1.02;;;0.80;;
41923;SDS011;27613;48.116;11.656;2024-02-21T06:38:38;1.85;;;0.90;;
41923;SDS011;27613;48.116;11.656;2024-02-21T06:41:04;3.42;;;1.65;;
41923;SDS011;27613;48.116;11.656;2024-02-21T06:43:29;1.67;;;1.00;;
41923;SDS011;27613;48.116;11.656;2024-02-21T06:45:55;1.02;;;0.68;;
41923;SDS011;27613;48.116;11.656;2024-02-21T06:48:21;1.38;;;0.95;;
41923;SDS011;27613;48.116;11.656;2024-02-21T06:50:47;0.98;;;0.80;;
41923;SDS011;27613;48.116;11.656;2024-02-21T06:53:13;2.35;;;1.00;;
41923;SDS011;27613;48.116;11.656;2024-02-21T06:55:38;1.40;;;1.00;;
41923;SDS011;27613;48.116;11.656;2024-02-21T06:58:04;0.73;;;0.73;;
41923;SDS011;27613;48.116;11.656;2024-02-21T07:00:29;0.98;;;0.88;;
41923;SDS011;27613;48.116;11.656;2024-02-21T07:02:55;1.95;;;1.02;;
41923;SDS011;27613;48.116;11.656;2024-02-21T07:05:20;1.95;;;0.82;;
41923;SDS011;27613;48.116;11.656;2024-02-21T07:07:47;1.73;;;1.13;;
41923;SDS011;27613;48.116;11.656;2024-02-21T07:10:12;5.55;;;0.90;;
41923;SDS011;27613;48.116;11.656;2024-02-21T07:12:38;1.63;;;1.05;;
41923;SDS011;27613;48.116;11.656;2024-02-21T07:15:08;2.03;;;0.90;;
41923;SDS011;27613;48.116;11.656;2024-02-21T07:17:33;1.33;;;0.90;;
41923;SDS011;27613;48.116;11.656;2024-02-21T07:19:59;1.38;;;1.15;;
41923;SDS011;27613;48.116;11.656;2024-02-21T07:22:24;1.63;;;1.20;;
41923;SDS011;27613;48.116;11.656;2024-02-21T07:24:50;4.88;;;1.60;;
41923;SDS011;27613;48.116;11.656;2024-02-21T07:27:15;5.38;;;3.33;;
41923;SDS011;27613;48.116;11.656;2024-02-21T07:29:41;3.65;;;1.90;;
41923;SDS011;27613;48.116;11.656;2024-02-21T07:32:07;1.85;;;1.30;;
41923;SDS011;27613;48.116;11.656;2024-02-21T07:34:33;5.70;;;3.38;;
41923;SDS011;27613;48.116;11.656;2024-02-21T07:36:58;2.10;;;1.38;;
41923;SDS011;27613;48.116;11.656;2024-02-21T07:39:24;2.42;;;0.98;;
41923;SDS011;27613;48.116;11.656;2024-02-21T07:41:49;5.78;;;1.40;;
41923;SDS011;27613;48.116;11.656;2024-02-21T07:44:15;1.92;;;1.20;;
41923;SDS011;27613;48.116;11.656;2024-02-21T07:46:41;2.50;;;1.00;;
41923;SDS011;27613;48.116;11.656;2024-02-21T07:49:06;2.17;;;1.20;;
41923;SDS011;27613;48.116;11.656;2024-02-21T07:51:32;1.85;;;1.05;;
41923;SDS011;27613;48.116;11.656;2024-02-21T07:53:57;5.38;;;1.55;;
41923;SDS011;27613;48.116;11.656;2024-02-21T07:56:23;1.50;;;0.98;;
41923;SDS011;27613;48.116;11.656;2024-02-21T07:58:48;1.45;;;0.85;;
41923;SDS011;27613;48.116;11.656;2024-02-21T08:01:20;3.67;;;1.10;;
41923;SDS011;27613;48.116;11.656;2024-02-21T08:03:46;0.80;;;0.80;;
41923;SDS011;27613;48.116;11.656;2024-02-21T08:06:12;2.40;;;0.80;;
41923;SDS011;27613;48.116;11.656;2024-02-21T08:08:38;1.58;;;0.90;;
41923;SDS011;27613;48.116;11.656;2024-02-21T08:11:04;1.67;;;0.90;;
41923;SDS011;27613;48.116;11.656;2024-02-21T08:13:30;0.80;;;0.70;;
41923;SDS011;27613;48.116;11.656;2024-02-21T08:15:56;1.85;;;0.90;;
41923;SDS011;27613;48.116;11.656;2024-02-21T08:18:22;2.28;;;1.25;;
41923;SDS011;27613;48.116;11.656;2024-02-21T08:20:48;1.65;;;0.90;;
41923;SDS011;27613;48.116;11.656;2024-02-21T08:23:18;1.17;;;0.75;;
41923;SDS011;27613;48.116;11.656;2024-02-21T08:25:44;1.13;;;0.82;;
41923;SDS011;27613;48.116;11.656;2024-02-21T08:28:09;1.17;;;0.77;;
41923;SDS011;27613;48.116;11.656;2024-02-21T08:30:35;2.05;;;0.98;;
41923;SDS011;27613;48.116;11.656;2024-02-21T08:33:00;1.63;;;0.82;;
41923;SDS011;27613;48.116;11.656;2024-02-21T08:35:26;2.88;;;0.80;;
41923;SDS011;27613;48.116;11.656;2024-02-21T08:37:51;0.90;;;0.80;;
41923;SDS011;27613;48.116;11.656;2024-02-21T08:40:17;0.93;;;0.73;;
41923;SDS011;27613;48.116;11.656;2024-02-21T08:42:46;1.20;;;0.80;;
41923;SDS011;27613;48.116;11.656;2024-02-21T08:45:12;1.17;;;0.77;;
41923;SDS011;27613;48.116;11.656;2024-02-21T08:47:41;1.02;;;0.73;;
41923;SDS011;27613;48.116;11.656;2024-02-21T08:50:07;0.77;;;0.70;;
41923;SDS011;27613;48.116;11.656;2024-02-21T08:52:35;2.00;;;0.90;;
41923;SDS011;27613;48.116;11.656;2024-02-21T08:55:00;4.28;;;0.65;;
41923;SDS011;27613;48.116;11.656;2024-02-21T08:57:26;0.85;;;0.55;;
41923;SDS011;27613;48.116;11.656;2024-02-21T08:59:52;1.02;;;0.73;;
41923;SDS011;27613;48.116;11.656;2024-02-21T09:02:18;1.13;;;0.80;;
41923;SDS011;27613;48.116;11.656;2024-02-21T09:04:43;1.50;;;0.70;;
41923;SDS011;27613;48.116;11.656;2024-02-21T09:07:09;1.10;;;0.68;;
41923;SDS011;27613;48.116;11.656;2024-02-21T09:09:35;2.13;;;0.70;;
41923;SDS011;27613;48.116;11.656;2024-02-21T09:12:03;0.57;;;0.50;;
41923;SDS011;27613;48.116;11.656;2024-02-21T09:14:34;1.00;;;0.70;;
41923;SDS011;27613;48.116;11.656;2024-02-21T09:17:03;1.10;;;0.50;;
41923;SDS011;27613;48.116;11.656;2024-02-21T09:19:29;0.43;;;0.43;;
41923;SDS011;27613;48.116;11.656;2024-02-21T09:21:54;0.95;;;0.52;;
41923;SDS011;27613;48.116;11.656;2024-02-21T09:24:20;0.93;;;0.50;;
41923;SDS011;27613;48.116;11.656;2024-02-21T09:26:46;0.60;;;0.50;;
41923;SDS011;27613;48.116;11.656;2024-02-21T09:29:12;0.80;;;0.60;;
41923;SDS011;27613;48.116;11.656;2024-02-21T09:31:37;0.90;;;0.60;;
41923;SDS011;27613;48.116;11.656;2024-02-21T09:34:03;0.68;;;0.45;;
41923;SDS011;27613;48.116;11.656;2024-02-21T09:36:29;0.88;;;0.50;;
41923;SDS011;27613;48.116;11.656;2024-02-21T09:38:55;0.93;;;0.60;;
41923;SDS011;27613;48.116;11.656;2024-02-21T09:41:27;0.40;;;0.40;;
41923;SDS011;27613;48.116;11.656;2024-02-21T09:43:53;0.68;;;0.50;;
41923;SDS011;27613;48.116;11.656;2024-02-21T09:46:19;0.82;;;0.60;;
41923;SDS011;27613;48.116;11.656;2024-02-21T09:52:10;0.93;;;0.43;;
41923;SDS011;27613;48.116;11.656;2024-02-21T09:54:39;0.82;;;0.50;;
41923;SDS011;27613;48.116;11.656;2024-02-21T09:57:07;1.58;;;0.70;;
41923;SDS011;27613;48.116;11.656;2024-02-21T09:59:36;1.38;;;0.60;;
41923;SDS011;27613;48.116;11.656;2024-02-21T10:02:02;1.00;;;0.60;;
41923;SDS011;27613;48.116;11.656;2024-02-21T10:04:29;4.70;;;0.50;;
41923;SDS011;27613;48.116;11.656;2024-02-21T10:06:55;0.70;;;0.57;;
41923;SDS011;27613;48.116;11.656;2024-02-21T10:09:21;1.10;;;0.60;;
41923;SDS011;27613;48.116;11.656;2024-02-21T10:11:47;1.17;;;0.60;;
41923;SDS011;27613;48.116;11.656;2024-02-21T10:14:14;0.90;;;0.60;;
41923;SDS011;27613;48.116;11.656;2024-02-21T10:16:40;0.95;;;0.65;;
41923;SDS011;27613;48.116;11.656;2024-02-21T10:19:07;0.95;;;0.60;;
41923;SDS011;27613;48.116;11.656;2024-02-21T10:21:41;0.77;;;0.60;;
41923;SDS011;27613;48.116;11.656;2024-02-21T10:24:07;1.50;;;0.60;;
41923;SDS011;27613;48.116;11.656;2024-02-21T10:26:33;1.13;;;0.57;;
41923;SDS011;27613;48.116;11.656;2024-02-21T10:28:58;1.45;;;0.90;;
41923;SDS011;27613;48.116;11.656;2024-02-21T10:31:27;0.80;;;0.60;;
41923;SDS011;27613;48.116;11.656;2024-02-21T10:33:56;1.38;;;0.77;;
41923;SDS011;27613;48.116;11.656;2024-02-21T10:38:54;1.65;;;0.80;;
41923;SDS011;27613;48.116;11.656;2024-02-21T10:41:20;1.40;;;0.65;;
41923;SDS011;27613;48.116;11.656;2024-02-21T10:43:49;1.20;;;0.65;;
41923;SDS011;27613;48.116;11.656;2024-02-21T10:46:19;0.60;;;0.57;;
41923;SDS011;27613;48.116;11.656;2024-02-21T10:48:46;0.80;;;0.55;;
41923;SDS011;27613;48.116;11.656;2024-02-21T10:51:16;0.70;;;0.55;;
41923;SDS011;27613;48.116;11.656;2024-02-21T10:58:41;3.90;;;0.70;;
41923;SDS011;27613;48.116;11.656;2024-02-21T11:01:09;1.35;;;0.60;;
41923;SDS011;27613;48.116;11.656;2024-02-21T11:03:35;0.90;;;0.68;;
41923;SDS011;27613;48.116;11.656;2024-02-21T11:06:01;1.38;;;0.70;;
41923;SDS011;27613;48.116;11.656;2024-02-21T11:08:28;0.60;;;0.60;;
41923;SDS011;27613;48.116;11.656;2024-02-21T11:10:57;1.10;;;0.65;;
41923;SDS011;27613;48.116;11.656;2024-02-21T11:13:31;1.10;;;0.60;;
41923;SDS011;27613;48.116;11.656;2024-02-21T11:16:07;0.47;;;0.47;;
41923;SDS011;27613;48.116;11.656;2024-02-21T11:18:34;0.50;;;0.50;;
41923;SDS011;27613;48.116;11.656;2024-02-21T11:20:59;0.50;;;0.50;;
41923;SDS011;27613;48.116;11.656;2024-02-21T11:23:28;0.80;;;0.70;;
41923;SDS011;27613;48.116;11.656;2024-02-21T11:26:03;0.50;;;0.50;;
41923;SDS011;27613;48.116;11.656;2024-02-21T11:28:36;0.85;;;0.60;;
41923;SDS011;27613;48.116;11.656;2024-02-21T11:31:09;1.25;;;0.70;;
41923;SDS011;27613;48.116;11.656;2024-02-21T11:33:41;0.40;;;0.40;;
41923;SDS011;27613;48.116;11.656;2024-02-21T11:36:10;0.40;;;0.40;;
41923;SDS011;27613;48.116;11.656;2024-02-21T11:38:36;0.50;;;0.50;;
41923;SDS011;27613;48.116;11.656;2024-02-21T11:41:02;0.50;;;0.50;;
41923;SDS011;27613;48.116;11.656;2024-02-21T11:43:27;0.75;;;0.63;;
41923;SDS011;27613;48.116;11.656;2024-02-21T11:46:00;0.60;;;0.50;;
41923;SDS011;27613;48.116;11.656;2024-02-21T11:48:26;0.50;;;0.50;;
41923;SDS011;27613;48.116;11.656;2024-02-21T11:50:52;1.02;;;0.82;;
41923;SDS011;27613;48.116;11.656;2024-02-21T11:53:21;1.10;;;0.77;;
41923;SDS011;27613;48.116;11.656;2024-02-21T11:55:47;0.50;;;0.50;;
41923;SDS011;27613;48.116;11.656;2024-02-21T11:58:12;0.85;;;0.57;;
41923;SDS011;27613;48.116;11.656;2024-02-21T12:00:38;0.65;;;0.65;;
41923;SDS011;27613;48.116;11.656;2024-02-21T12:03:05;0.90;;;0.68;;
41923;SDS011;27613;48.116;11.656;2024-02-21T12:05:31;0.60;;;0.60;;
41923;SDS011;27613;48.116;11.656;2024-02-21T12:07:57;0.63;;;0.55;;
41923;SDS011;27613;48.116;11.656;2024-02-21T12:10:23;0.82;;;0.70;;
41923;SDS011;27613;48.116;11.656;2024-02-21T12:12:51;0.77;;;0.70;;
41923;SDS011;27613;48.116;11.656;2024-02-21T12:15:18;0.70;;;0.60;;
41923;SDS011;27613;48.116;11.656;2024-02-21T12:17:43;2.17;;;0.65;;
41923;SDS011;27613;48.116;11.656;2024-02-21T12:20:10;0.98;;;0.50;;
41923;SDS011;27613;48.116;11.656;2024-02-21T12:22:39;4.13;;;0.55;;
41923;SDS011;27613;48.116;11.656;2024-02-21T12:27:47;0.50;;;0.50;;
41923;SDS011;27613;48.116;11.656;2024-02-21T12:30:14;1.33;;;0.60;;
41923;SDS011;27613;48.116;11.656;2024-02-21T12:32:40;0.73;;;0.60;;
41923;SDS011;27613;48.116;11.656;2024-02-21T12:35:06;0.90;;;0.50;;
41923;SDS011;27613;48.116;11.656;2024-02-21T12:37:32;0.40;;;0.40;;
41923;SDS011;27613;48.116;11.656;2024-02-21T12:39:58;2.90;;;0.70;;
41923;SDS011;27613;48.116;11.656;2024-02-21T12:42:24;0.82;;;0.60;;
41923;SDS011;27613;48.116;11.656;2024-02-21T12:44:51;0.55;;;0.50;;
41923;SDS011;27613;48.116;11.656;2024-02-21T12:47:19;0.40;;;0.40;;
41923;SDS011;27613;48.116;11.656;2024-02-21T12:49:48;0.40;;;0.40;;
41923;SDS011;27613;48.116;11.656;2024-02-21T12:52:14;0.77;;;0.60;;
41923;SDS011;27613;48.116;11.656;2024-02-21T12:54:40;0.40;;;0.40;;
41923;SDS011;27613;48.116;11.656;2024-02-21T12:57:05;0.55;;;0.55;;
41923;SDS011;27613;48.116;11.656;2024-02-21T12:59:31;1.08;;;0.55;;
41923;SDS011;27613;48.116;11.656;2024-02-21T13:01:56;0.50;;;0.50;;
41923;SDS011;27613;48.116;11.656;2024-02-21T13:04:22;0.73;;;0.60;;
41923;SDS011;27613;48.116;11.656;2024-02-21T13:06:48;0.75;;;0.50;;
41923;SDS011;27613;48.116;11.656;2024-02-21T13:09:14;2.53;;;0.60;;
41923;SDS011;27613;48.116;11.656;2024-02-21T13:11:39;0.50;;;0.50;;
41923;SDS011;27613;48.116;11.656;2024-02-21T13:14:06;1.80;;;0.57;;
41923;SDS011;27613;48.116;11.656;2024-02-21T13:16:31;0.65;;;0.50;;
41923;SDS011;27613;48.116;11.656;2024-02-21T13:18:59;0.60;;;0.60;;
41923;SDS011;27613;48.116;11.656;2024-02-21T13:21:24;1.35;;;0.50;;
41923;SDS011;27613;48.116;11.656;2024-02-21T13:23:50;1.38;;;0.57;;
41923;SDS011;27613;48.116;11.656;2024-02-21T13:26:16;0.75;;;0.50;;
41923;SDS011;27613;48.116;11.656;2024-02-21T13:28:41;0.65;;;0.65;;
41923;SDS011;27613;48.116;11.656;2024-02-21T13:31:09;0.57;;;0.57;;
41923;SDS011;27613;48.116;11.656;2024-02-21T13:33:35;0.63;;;0.57;;
41923;SDS011;27613;48.116;11.656;2024-02-21T13:36:01;0.50;;;0.50;;
41923;SDS011;27613;48.116;11.656;2024-02-21T13:38:28;0.50;;;0.40;;
41923;SDS011;27613;48.116;11.656;2024-02-21T13:40:54;0.75;;;0.57;;
41923;SDS011;27613;48.116;11.656;2024-02-21T13:43:19;0.50;;;0.50;;
41923;SDS011;27613;48.116;11.656;2024-02-21T13:45:57;0.47;;;0.47;;
41923;SDS011;27613;48.116;11.656;2024-02-21T13:48:24;0.40;;;0.40;;
41923;SDS011;27613;48.116;11.656;2024-02-21T13:50:50;1.08;;;0.65;;
41923;SDS011;27613;48.116;11.656;2024-02-21T13:53:16;0.68;;;0.65;;
41923;SDS011;27613;48.116;11.656;2024-02-21T13:55:45;1.08;;;0.47;;
41923;SDS011;27613;48.116;11.656;2024-02-21T13:58:11;0.88;;;0.50;;
41923;SDS011;27613;48.116;11.656;2024-02-21T14:00:36;0.95;;;0.60;;
41923;SDS011;27613;48.116;11.656;2024-02-21T14:03:02;0.60;;;0.57;;
41923;SDS011;27613;48.116;11.656;2024-02-21T14:05:28;0.50;;;0.50;;
41923;SDS011;27613;48.116;11.656;2024-02-21T14:07:53;0.50;;;0.50;;
41923;SDS011;27613;48.116;11.656;2024-02-21T14:10:19;0.47;;;0.40;;
41923;SDS011;27613;48.116;11.656;2024-02-21T14:12:45;0.50;;;0.50;;
41923;SDS011;27613;48.116;11.656;2024-02-21T14:15:12;0.80;;;0.70;;
41923;SDS011;27613;48.116;11.656;2024-02-21T14:17:38;1.15;;;0.50;;
41923;SDS011;27613;48.116;11.656;2024-02-21T14:20:04;0.75;;;0.47;;
41923;SDS011;27613;48.116;11.656;2024-02-21T14:22:30;0.50;;;0.47;;
41923;SDS011;27613;48.116;11.656;2024-02-21T14:24:55;1.00;;;0.47;;
41923;SDS011;27613;48.116;11.656;2024-02-21T14:27:21;0.80;;;0.57;;
41923;SDS011;27613;48.116;11.656;2024-02-21T14:29:47;0.52;;;0.52;;
41923;SDS011;27613;48.116;11.656;2024-02-21T14:32:12;0.40;;;0.40;;
41923;SDS011;27613;48.116;11.656;2024-02-21T14:34:38;0.55;;;0.55;;
41923;SDS011;27613;48.116;11.656;2024-02-21T14:37:03;1.92;;;0.40;;
41923;SDS011;27613;48.116;11.656;2024-02-21T14:39:29;0.52;;;0.40;;
41923;SDS011;27613;48.116;11.656;2024-02-21T14:41:55;0.65;;;0.40;;